Time;durP1;ratioP1;P1;durP2;ratioP2;P2;SDS_P1;SDS_P2;PMS_P1;PMS_P2;Temp;Humidity;BMP_temperature;BMP_pressure;BME280_temperature;BME280_humidity;BME280_pressure;Samples;Min_cycle;Max_cycle;Signal;HPM_P1;HPM_P2
2021/07/30 00:00:57;;;;;;;;;;;;;;;14.72;82.95;99507.00;5116636;28;20339;-76
2021/07/30 00:03:23;;;;;;;;;;;;;;;14.69;82.80;99509.88;5116599;28;19928;-75
2021/07/30 00:05:50;;;;;;;;;;;;;;;14.75;82.90;99498.06;5116581;28;19931;-75
2021/07/30 00:08:17;;;;;;;;;;;;;;;14.64;83.25;99498.19;5116997;28;20301;-76
2021/07/30 00:10:45;;;;;;;;;;;;;;;14.86;82.57;99497.88;5116393;28;19935;-75
2021/07/30 00:13:12;;;;;;;;;;;;;;;14.54;83.53;99499.06;5117001;28;19923;-75
2021/07/30 00:15:39;;;;;;;;;;;;;;;14.70;83.25;99490.63;5116623;28;19924;-75
2021/07/30 00:18:05;;;;;;;;;;;;;;;14.59;83.42;99491.59;5116605;28;19931;-75
2021/07/30 00:20:32;;;;;;;;;;;;;;;14.54;83.61;99491.19;5116559;28;19969;-75
2021/07/30 00:22:59;;;;;;;;;;;;;;;14.54;83.51;99495.59;5116478;28;19928;-75
2021/07/30 00:25:25;;;;;;;;;;;;;;;14.59;83.35;99491.59;5116365;28;19938;-75
2021/07/30 00:27:53;;;;;;;;;;;;;;;14.62;83.25;99489.66;5116070;28;20401;-75
2021/07/30 00:30:20;;;;;;;;;;;;;;;14.62;83.29;99487.88;5116206;28;20320;-75
2021/07/30 00:32:47;;;;;;;;;;;;;;;14.50;83.99;99489.78;5116360;28;19930;-75
2021/07/30 00:35:13;;;;;;;;;;;;;;;14.53;83.67;99486.91;5116279;28;19924;-75
2021/07/30 00:37:40;;;;;;;;;;;;;;;14.45;83.94;99483.31;5116283;28;19923;-75
2021/07/30 00:40:07;;;;;;;;;;;;;;;14.38;84.20;99489.13;5116405;28;19924;-75
2021/07/30 00:42:35;;;;;;;;;;;;;;;14.49;83.90;99485.53;5116050;28;20415;-75
2021/07/30 00:45:04;;;;;;;;;;;;;;;14.57;83.22;99472.59;5116189;28;19928;-75
2021/07/30 00:47:31;;;;;;;;;;;;;;;14.55;83.15;99476.31;5116041;28;19930;-75
2021/07/30 00:49:59;;;;;;;;;;;;;;;14.41;84.03;99480.19;5115908;28;19930;-75
2021/07/30 00:52:26;;;;;;;;;;;;;;;14.52;83.34;99474.78;5115843;28;19924;-75
2021/07/30 00:54:53;;;;;;;;;;;;;;;14.53;83.18;99481.69;5115665;28;19924;-75
2021/07/30 00:57:22;;;;;;;;;;;;;;;14.45;83.78;99478.09;5115804;28;19924;-75
2021/07/30 00:59:49;;;;;;;;;;;;;;;14.28;84.21;99477.84;5115811;28;19924;-75
2021/07/30 01:02:17;;;;;;;;;;;;;;;14.50;83.83;99473.25;5115764;28;20297;-75
2021/07/30 01:04:44;;;;;;;;;;;;;;;14.25;84.77;99470.25;5115753;28;19933;-75
2021/07/30 01:07:10;;;;;;;;;;;;;;;14.52;83.87;99472.16;5115679;28;19923;-75
2021/07/30 01:09:37;;;;;;;;;;;;;;;14.41;84.29;99469.72;5115786;28;19931;-75
2021/07/30 01:12:04;;;;;;;;;;;;;;;14.19;84.94;99467.38;5115910;28;19930;-75
2021/07/30 01:14:30;;;;;;;;;;;;;;;14.15;85.27;99466.81;5115757;28;19960;-75
2021/07/30 01:16:57;;;;;;;;;;;;;;;14.33;84.92;99464.31;5115234;28;19924;-74
2021/07/30 01:19:25;;;;;;;;;;;;;;;14.23;85.04;99471.34;5115771;28;20014;-74
2021/07/30 01:21:53;;;;;;;;;;;;;;;14.21;85.15;99462.84;5115144;28;19930;-75
2021/07/30 01:24:21;;;;;;;;;;;;;;;14.26;84.65;99464.06;5115168;28;20306;-74
2021/07/30 01:26:48;;;;;;;;;;;;;;;14.24;85.11;99465.19;5115047;28;19931;-75
2021/07/30 01:29:15;;;;;;;;;;;;;;;14.35;84.85;99459.78;5115380;28;19950;-74
2021/07/30 01:31:42;;;;;;;;;;;;;;;14.25;84.55;99465.03;5115268;28;19923;-75
2021/07/30 01:34:08;;;;;;;;;;;;;;;14.24;84.80;99465.19;5115058;28;20430;-74
2021/07/30 01:36:35;;;;;;;;;;;;;;;14.25;84.95;99457.19;5115077;28;19935;-75
2021/07/30 01:39:01;;;;;;;;;;;;;;;14.18;85.14;99455.25;5115036;28;19978;-75
2021/07/30 01:41:30;;;;;;;;;;;;;;;14.30;84.98;99462.81;5115323;28;19930;-75
2021/07/30 01:43:56;;;;;;;;;;;;;;;14.17;85.38;99457.06;5115008;28;19930;-75
2021/07/30 01:46:23;;;;;;;;;;;;;;;14.19;85.37;99454.31;5114914;28;19931;-75
2021/07/30 01:48:49;;;;;;;;;;;;;;;14.15;85.69;99459.81;5114740;28;19946;-75
2021/07/30 01:51:16;;;;;;;;;;;;;;;14.16;85.24;99455.41;5115110;28;19924;-75
2021/07/30 01:53:43;;;;;;;;;;;;;;;14.16;85.25;99461.47;5114504;28;19931;-75
2021/07/30 01:56:09;;;;;;;;;;;;;;;14.24;85.01;99463.38;5114609;28;19927;-75
2021/07/30 01:58:37;;;;;;;;;;;;;;;14.23;84.98;99464.38;5114590;28;20370;-75
2021/07/30 02:01:04;;;;;;;;;;;;;;;14.29;84.83;99465.59;5114912;28;19924;-75
2021/07/30 02:03:31;;;;;;;;;;;;;;;14.30;84.61;99464.63;5114464;28;19924;-75
2021/07/30 02:05:57;;;;;;;;;;;;;;;14.16;85.14;99464.06;5114303;28;19931;-75
2021/07/30 02:08:24;;;;;;;;;;;;;;;14.04;86.18;99459.13;5114087;28;19924;-75
2021/07/30 02:10:50;;;;;;;;;;;;;;;14.07;85.67;99459.66;5114407;28;19924;-75
2021/07/30 02:16:02;;;;;;;;;;;;;;;14.27;84.63;99464.91;5114067;28;19931;-75
2021/07/30 02:18:29;;;;;;;;;;;;;;;14.21;84.87;99457.63;5114160;28;19931;-75
2021/07/30 02:20:56;;;;;;;;;;;;;;;14.28;84.81;99469.16;5113952;28;20301;-75
2021/07/30 02:23:22;;;;;;;;;;;;;;;14.42;84.06;99462.69;5114471;28;19924;-75
2021/07/30 02:25:49;;;;;;;;;;;;;;;14.59;83.42;99470.66;5113872;28;19924;-74
2021/07/30 02:28:15;;;;;;;;;;;;;;;14.57;83.53;99464.75;5113911;28;20404;-75
2021/07/30 02:30:42;;;;;;;;;;;;;;;14.51;83.83;99472.28;5113963;28;19924;-75
2021/07/30 02:33:10;;;;;;;;;;;;;;;14.62;82.71;99464.31;5113984;28;19924;-75
2021/07/30 02:35:36;;;;;;;;;;;;;;;14.45;83.54;99473.69;5113863;28;19924;-75
2021/07/30 02:38:03;;;;;;;;;;;;;;;14.35;84.45;99472.88;5114100;28;19930;-75
2021/07/30 02:40:30;;;;;;;;;;;;;;;14.28;84.78;99466.53;5113789;28;19931;-75
2021/07/30 02:42:56;;;;;;;;;;;;;;;14.46;84.05;99474.50;5113531;28;20293;-75
2021/07/30 02:45:23;;;;;;;;;;;;;;;14.41;84.09;99474.94;5114059;28;19923;-75
2021/07/30 02:47:49;;;;;;;;;;;;;;;14.45;83.75;99473.69;5113452;28;19924;-75
2021/07/30 02:50:17;;;;;;;;;;;;;;;14.40;84.25;99468.03;5113746;28;20289;-75
2021/07/30 02:52:44;;;;;;;;;;;;;;;14.50;83.89;99473.25;5113697;28;19923;-75
2021/07/30 02:55:11;;;;;;;;;;;;;;;14.46;83.98;99469.25;5113844;28;19924;-75
2021/07/30 02:57:37;;;;;;;;;;;;;;;14.57;83.37;99464.75;5113860;28;19924;-75
2021/07/30 03:00:05;;;;;;;;;;;;;;;14.51;83.83;99461.81;5113631;28;19928;-75
2021/07/30 03:02:32;;;;;;;;;;;;;;;14.67;83.12;99466.50;5113194;28;19930;-75
2021/07/30 03:04:59;;;;;;;;;;;;;;;14.68;83.07;99462.91;5113166;28;19928;-75
2021/07/30 03:07:27;;;;;;;;;;;;;;;14.72;82.71;99469.50;5113380;28;20382;-75
2021/07/30 03:09:53;;;;;;;;;;;;;;;14.81;82.32;99464.25;5113007;28;20370;-75
2021/07/30 03:12:20;;;;;;;;;;;;;;;14.98;81.59;99454.81;5113545;28;19924;-75
2021/07/30 03:14:46;;;;;;;;;;;;;;;14.98;81.04;99462.69;5112982;28;19934;-74
2021/07/30 03:17:13;;;;;;;;;;;;;;;14.91;81.80;99461.59;5113148;28;19924;-74
2021/07/30 03:19:40;;;;;;;;;;;;;;;14.94;81.44;99457.88;5112357;28;19931;-74
2021/07/30 03:22:06;;;;;;;;;;;;;;;14.98;81.34;99454.81;5113183;28;20404;-74
2021/07/30 03:24:34;;;;;;;;;;;;;;;14.86;82.08;99449.91;5113436;28;19931;-75
2021/07/30 03:27:01;;;;;;;;;;;;;;;14.94;81.67;99445.59;5113038;28;19925;-75
2021/07/30 03:29:27;;;;;;;;;;;;;;;14.99;81.31;99448.59;5113181;28;19923;-75
2021/07/30 03:31:54;;;;;;;;;;;;;;;15.13;80.45;99443.84;5112716;28;19924;-75
2021/07/30 03:34:20;;;;;;;;;;;;;;;15.12;80.44;99447.47;5113316;28;19923;-76
2021/07/30 03:36:47;;;;;;;;;;;;;;;15.03;80.76;99441.31;5112635;28;19924;-75
2021/07/30 03:39:14;;;;;;;;;;;;;;;15.13;80.44;99449.09;5112899;28;19931;-75
2021/07/30 03:41:42;;;;;;;;;;;;;;;15.01;80.97;99451.91;5113013;28;19924;-75
2021/07/30 03:44:08;;;;;;;;;;;;;;;15.09;80.75;99456.44;5113216;28;19931;-75
2021/07/30 03:46:35;;;;;;;;;;;;;;;15.05;80.35;99454.25;5113198;28;19930;-75
2021/07/30 03:49:01;;;;;;;;;;;;;;;15.16;79.90;99452.25;5112760;28;19924;-75
2021/07/30 03:51:28;;;;;;;;;;;;;;;15.19;80.37;99459.00;5113058;28;19924;-75
2021/07/30 03:53:54;;;;;;;;;;;;;;;15.28;80.34;99457.31;5112552;28;19923;-75
2021/07/30 03:56:21;;;;;;;;;;;;;;;15.28;79.81;99452.88;5112699;28;20377;-75
2021/07/30 03:58:49;;;;;;;;;;;;;;;15.31;79.93;99451.75;5112835;28;19923;-75
2021/07/30 04:01:16;;;;;;;;;;;;;;;15.32;80.29;99451.63;5113078;28;19924;-75
2021/07/30 04:03:44;;;;;;;;;;;;;;;15.18;79.98;99454.72;5112285;28;19931;-75
2021/07/30 04:06:11;;;;;;;;;;;;;;;15.15;80.07;99447.97;5112631;28;19924;-75
2021/07/30 04:08:38;;;;;;;;;;;;;;;15.11;80.75;99457.13;5112705;28;19924;-75
2021/07/30 04:11:04;;;;;;;;;;;;;;;15.14;80.15;99451.59;5112600;28;19924;-75
2021/07/30 04:13:31;;;;;;;;;;;;;;;15.17;80.00;99451.28;5112954;28;19924;-75
2021/07/30 04:16:02;;;;;;;;;;;;;;;14.98;80.47;99454.00;5112304;28;19924;-75
2021/07/30 04:18:29;;;;;;;;;;;;;;;14.85;80.75;99454.34;5112553;28;19923;-75
2021/07/30 04:20:55;;;;;;;;;;;;;;;14.70;81.51;99446.09;5112635;28;19934;-75
2021/07/30 04:23:22;;;;;;;;;;;;;;;14.86;81.59;99450.72;5112586;28;19924;-75
2021/07/30 04:25:49;;;;;;;;;;;;;;;14.91;81.28;99450.31;5112628;28;19924;-75
2021/07/30 04:28:15;;;;;;;;;;;;;;;15.05;81.14;99438.53;5112256;28;19924;-75
2021/07/30 04:30:42;;;;;;;;;;;;;;;15.04;80.94;99442.94;5112685;28;19931;-75
2021/07/30 04:33:10;;;;;;;;;;;;;;;15.06;80.95;99441.00;5116341;28;20400;-75
2021/07/30 04:35:37;;;;;;;;;;;;;;;15.02;80.05;99434.41;5116304;28;19935;-75
2021/07/30 04:38:03;;;;;;;;;;;;;;;15.12;79.47;99439.59;5116232;28;19930;-75
2021/07/30 04:40:30;;;;;;;;;;;;;;;14.95;79.95;99438.56;5116426;28;19924;-74
2021/07/30 04:42:57;;;;;;;;;;;;;;;15.11;79.67;99436.16;5115772;28;20377;-75
2021/07/30 04:45:23;;;;;;;;;;;;;;;15.06;79.82;99433.16;5116396;28;19930;-75
2021/07/30 04:47:50;;;;;;;;;;;;;;;15.15;79.19;99439.31;5115819;28;19931;-75
2021/07/30 04:50:18;;;;;;;;;;;;;;;15.15;79.52;99436.69;5115860;28;20512;-75
2021/07/30 04:52:45;;;;;;;;;;;;;;;15.30;78.62;99439.66;5115633;28;19938;-75
2021/07/30 04:55:11;;;;;;;;;;;;;;;15.42;78.45;99439.28;5115877;28;20270;-75
2021/07/30 04:57:38;;;;;;;;;;;;;;;15.45;78.59;99427.69;5115897;28;20404;-75
2021/07/30 05:00:05;;;;;;;;;;;;;;;15.24;78.77;99431.41;5116164;28;19931;-75
2021/07/30 05:02:32;;;;;;;;;;;;;;;15.32;78.53;99430.66;5115535;28;20000;-75
2021/07/30 05:04:58;;;;;;;;;;;;;;;15.44;78.37;99431.28;5115723;28;19928;-75
2021/07/30 05:07:26;;;;;;;;;;;;;;;15.23;78.90;99424.53;5115711;28;19930;-75
2021/07/30 05:09:53;;;;;;;;;;;;;;;15.46;78.38;99426.69;5115385;28;19924;-75
2021/07/30 05:12:19;;;;;;;;;;;;;;;15.37;78.87;99428.44;5115771;28;19947;-75
2021/07/30 05:14:46;;;;;;;;;;;;;;;15.12;79.57;99429.94;5115152;28;19924;-75
2021/07/30 05:17:13;;;;;;;;;;;;;;;15.27;79.30;99430.28;5115773;28;19924;-75
2021/07/30 05:19:39;;;;;;;;;;;;;;;15.43;78.64;99429.63;5115199;28;20396;-75
2021/07/30 05:22:06;;;;;;;;;;;;;;;15.53;78.13;99422.53;5115675;28;19924;-75
2021/07/30 05:24:37;;;;;;;;;;;;;;;15.79;76.79;99416.56;5115643;28;19924;-75
2021/07/30 05:27:04;;;;;;;;;;;;;;;16.01;76.38;99425.78;5115458;28;19923;-75
2021/07/30 05:29:31;;;;;;;;;;;;;;;15.98;75.86;99418.19;5115439;28;19928;-75
2021/07/30 05:31:57;;;;;;;;;;;;;;;15.92;75.57;99409.13;5115184;27;19936;-75
2021/07/30 05:34:24;;;;;;;;;;;;;;;15.82;76.12;99417.09;5115178;28;19924;-75
2021/07/30 05:36:51;;;;;;;;;;;;;;;15.85;76.33;99416.81;5114867;28;20435;-75
2021/07/30 05:39:18;;;;;;;;;;;;;;;15.84;76.43;99416.94;5115268;28;19928;-75
2021/07/30 05:41:46;;;;;;;;;;;;;;;15.80;76.91;99416.44;5114657;28;19924;-76
2021/07/30 05:44:13;;;;;;;;;;;;;;;16.01;75.70;99415.28;5114052;28;19924;-75
2021/07/30 05:46:39;;;;;;;;;;;;;;;16.20;74.87;99419.53;5114632;28;20378;-75
2021/07/30 05:49:06;;;;;;;;;;;;;;;15.95;75.34;99411.47;5115151;28;19966;-75
2021/07/30 05:51:33;;;;;;;;;;;;;;;16.18;75.25;99411.78;5114755;28;19923;-75
2021/07/30 05:53:59;;;;;;;;;;;;;;;16.17;74.91;99406.72;5114639;28;19928;-74
2021/07/30 05:56:26;;;;;;;;;;;;;;;16.23;74.18;99404.28;5115013;28;19946;-75
2021/07/30 05:58:54;;;;;;;;;;;;;;;16.22;74.96;99400.03;5114715;28;19924;-75
2021/07/30 06:01:20;;;;;;;;;;;;;;;15.90;75.47;99405.84;5114932;28;19931;-75
2021/07/30 06:03:47;;;;;;;;;;;;;;;15.97;75.87;99408.69;5114082;28;19997;-71
2021/07/30 06:06:13;;;;;;;;;;;;;;;15.72;76.32;99398.00;5114476;28;20290;-74
2021/07/30 06:08:40;;;;;;;;;;;;;;;15.57;76.81;99387.19;5114431;28;19923;-74
2021/07/30 06:11:07;;;;;;;;;;;;;;;15.82;75.58;99392.66;5114648;28;19928;-74
2021/07/30 06:13:33;;;;;;;;;;;;;;;15.81;75.59;99389.22;5114356;28;19924;-74
2021/07/30 06:16:01;;;;;;;;;;;;;;;15.71;76.18;99392.91;5113995;28;19931;-74
2021/07/30 06:18:28;;;;;;;;;;;;;;;15.97;75.19;99385.09;5114321;28;19942;-74
2021/07/30 06:20:54;;;;;;;;;;;;;;;16.02;74.64;99382.81;5114260;28;19924;-75
2021/07/30 06:23:21;;;;;;;;;;;;;;;15.94;75.33;99386.22;5114327;28;20297;-75
2021/07/30 06:25:48;;;;;;;;;;;;;;;15.92;76.09;99387.34;5113923;28;19930;-75
2021/07/30 06:28:14;;;;;;;;;;;;;;;15.91;74.99;99391.78;5113974;28;20258;-75
2021/07/30 06:30:41;;;;;;;;;;;;;;;15.87;74.87;99393.84;5114059;28;19930;-75
2021/07/30 06:33:12;;;;;;;;;;;;;;;15.79;75.01;99385.91;5113750;28;19924;-75
2021/07/30 06:35:39;;;;;;;;;;;;;;;15.86;75.21;99376.47;5114091;28;19927;-75
2021/07/30 06:38:05;;;;;;;;;;;;;;;16.11;74.03;99374.06;5113929;28;19924;-75
2021/07/30 06:40:32;;;;;;;;;;;;;;;16.33;73.75;99378.78;5114124;28;19931;-75
2021/07/30 06:42:58;;;;;;;;;;;;;;;16.28;74.04;99382.84;5113528;28;19931;-75
2021/07/30 06:45:25;;;;;;;;;;;;;;;16.27;73.54;99376.78;5114097;28;19928;-75
2021/07/30 06:47:52;;;;;;;;;;;;;;;16.59;72.33;99377.09;5113387;28;19924;-75
2021/07/30 06:50:20;;;;;;;;;;;;;;;16.50;72.57;99373.63;5114032;28;19934;-75
2021/07/30 06:52:46;;;;;;;;;;;;;;;16.73;72.04;99369.47;5113170;28;19924;-75
2021/07/30 06:55:13;;;;;;;;;;;;;;;16.70;72.00;99364.53;5113464;28;19931;-75
2021/07/30 06:57:39;;;;;;;;;;;;;;;16.53;72.64;99378.56;5113510;28;19931;-75
2021/07/30 07:00:07;;;;;;;;;;;;;;;16.58;72.10;99376.28;5113636;28;19924;-75
2021/07/30 07:02:33;;;;;;;;;;;;;;;16.65;71.71;99374.69;5113306;28;19924;-75
2021/07/30 07:05:00;;;;;;;;;;;;;;;16.37;72.45;99363.56;5113202;28;20370;-74
2021/07/30 07:07:28;;;;;;;;;;;;;;;16.59;71.98;99361.34;5113619;28;19924;-74
2021/07/30 07:09:54;;;;;;;;;;;;;;;16.70;71.69;99361.91;5113329;28;19946;-75
2021/07/30 07:12:21;;;;;;;;;;;;;;;16.68;70.91;99366.50;5113560;28;19931;-75
2021/07/30 07:14:47;;;;;;;;;;;;;;;16.97;70.26;99360.88;5113000;28;20275;-75
2021/07/30 07:17:15;;;;;;;;;;;;;;;16.67;70.73;99351.72;5113523;28;19924;-75
2021/07/30 07:19:42;;;;;;;;;;;;;;;16.89;70.15;99342.47;5112842;28;19959;-75
2021/07/30 07:22:08;;;;;;;;;;;;;;;16.69;71.28;99347.13;5113082;28;20397;-75
2021/07/30 07:24:38;;;;;;;;;;;;;;;16.75;70.34;99343.88;5113479;28;19924;-75
2021/07/30 07:27:05;;;;;;;;;;;;;;;16.46;71.25;99333.72;5113024;28;19924;-75
2021/07/30 07:29:32;;;;;;;;;;;;;;;16.44;71.15;99346.22;5113245;28;19923;-75
2021/07/30 07:31:59;;;;;;;;;;;;;;;16.50;71.00;99355.25;5112901;28;19943;-75
2021/07/30 07:34:26;;;;;;;;;;;;;;;16.54;71.03;99361.81;5112961;28;20374;-75
2021/07/30 07:36:52;;;;;;;;;;;;;;;16.75;70.28;99353.56;5112681;28;20271;-75
2021/07/30 07:39:19;;;;;;;;;;;;;;;16.67;69.87;99349.09;5113206;28;19928;-75
2021/07/30 07:41:47;;;;;;;;;;;;;;;16.74;70.19;99344.84;5112567;28;19930;-75
2021/07/30 07:44:14;;;;;;;;;;;;;;;16.68;70.49;99342.88;5112843;28;20374;-75
2021/07/30 07:46:40;;;;;;;;;;;;;;;16.79;70.36;99340.97;5112960;28;19923;-75
2021/07/30 07:49:07;;;;;;;;;;;;;;;16.71;70.28;99339.91;5112836;28;19924;-75
2021/07/30 07:51:34;;;;;;;;;;;;;;;16.67;70.54;99343.00;5112717;28;20404;-75
2021/07/30 07:54:01;;;;;;;;;;;;;;;17.03;69.58;99346.31;5112612;28;19931;-75
2021/07/30 07:56:28;;;;;;;;;;;;;;;17.45;68.94;99347.19;5113136;28;19924;-75
2021/07/30 07:58:55;;;;;;;;;;;;;;;17.98;66.93;99338.00;5112430;28;19930;-76
2021/07/30 08:01:23;;;;;;;;;;;;;;;18.04;66.32;99332.09;5112760;28;19923;-74
2021/07/30 08:03:49;;;;;;;;;;;;;;;18.05;66.11;99336.34;5112225;28;20285;-75
2021/07/30 08:06:17;;;;;;;;;;;;;;;18.59;64.44;99327.81;5113941;28;19931;-72
2021/07/30 08:08:44;;;;;;;;;;;;;;;18.53;64.72;99325.88;5116593;28;19924;-72
2021/07/30 08:11:11;;;;;;;;;;;;;;;18.34;65.22;99325.28;5116982;28;19931;-76
2021/07/30 08:13:37;;;;;;;;;;;;;;;18.48;64.51;99316.66;5116847;28;19939;-75
2021/07/30 08:16:06;;;;;;;;;;;;;;;19.06;63.04;99319.91;5116986;28;19923;-72
2021/07/30 08:18:33;;;;;;;;;;;;;;;18.56;63.86;99312.38;5116977;28;19951;-72
2021/07/30 08:21:00;;;;;;;;;;;;;;;18.40;64.40;99318.53;5116692;28;19939;-72
2021/07/30 08:23:27;;;;;;;;;;;;;;;18.19;64.92;99317.25;5116731;28;19927;-72
2021/07/30 08:25:53;;;;;;;;;;;;;;;18.60;64.07;99313.66;5116232;28;19924;-72
2021/07/30 08:28:20;;;;;;;;;;;;;;;18.48;64.53;99314.03;5116667;28;19924;-72
2021/07/30 08:30:46;;;;;;;;;;;;;;;18.68;63.76;99311.81;5116333;28;19924;-71
2021/07/30 08:33:14;;;;;;;;;;;;;;;18.88;63.65;99308.78;5116625;28;19924;-71
2021/07/30 08:35:41;;;;;;;;;;;;;;;19.45;61.82;99312.88;5116275;28;19939;-72
2021/07/30 08:38:08;;;;;;;;;;;;;;;19.97;59.17;99301.56;5116273;28;19924;-72
2021/07/30 08:40:34;;;;;;;;;;;;;;;20.87;57.23;99300.53;5116246;28;20370;-71
2021/07/30 08:43:01;;;;;;;;;;;;;;;22.36;53.71;99292.63;5116131;28;19924;-72
2021/07/30 08:45:28;;;;;;;;;;;;;;;21.47;54.45;99294.03;5116042;28;20271;-72
2021/07/30 08:47:55;;;;;;;;;;;;;;;20.78;56.52;99293.69;5115812;28;19924;-72
2021/07/30 08:50:23;;;;;;;;;;;;;;;21.13;56.22;99297.34;5116304;28;19937;-72
2021/07/30 08:52:56;;;;;;;;;;;;;;;20.82;56.76;99293.16;5115520;28;19935;-73
2021/07/30 08:55:28;;;;;;;;;;;;;;;21.82;54.33;99295.94;5116170;28;19930;-72
2021/07/30 08:57:55;;;;;;;;;;;;;;;21.72;54.55;99290.97;5115677;28;20302;-72
2021/07/30 09:00:22;;;;;;;;;;;;;;;22.20;53.68;99290.31;5115825;28;19930;-73
2021/07/30 09:02:49;;;;;;;;;;;;;;;22.53;53.13;99282.50;5115235;28;19923;-73
2021/07/30 09:05:26;;;;;;;;;;;;;;;24.44;47.84;99277.50;5115922;28;19924;-74
2021/07/30 09:07:53;;;;;;;;;;;;;;;25.66;44.97;99276.59;5115740;28;20014;-74
2021/07/30 09:10:26;;;;;;;;;;;;;;;23.31;49.55;99268.88;5115934;27;19928;-73
2021/07/30 09:12:53;;;;;;;;;;;;;;;23.29;49.87;99274.38;5115567;28;19930;-74
2021/07/30 09:15:24;;;;;;;;;;;;;;;23.86;49.11;99272.94;5115379;28;19924;-74
2021/07/30 09:17:50;;;;;;;;;;;;;;;24.07;48.39;99269.25;5113806;28;19973;-73
2021/07/30 09:20:23;;;;;;;;;;;;;;;23.72;48.61;99268.69;5115655;28;19924;-74
2021/07/30 09:22:53;;;;;;;;;;;;;;;23.32;49.48;99259.88;5115428;28;19923;-73
2021/07/30 09:25:32;;;;;;;;;;;;;;;22.88;50.88;99256.72;5115145;28;19934;-73
2021/07/30 09:28:02;;;;;;;;;;;;;;;22.10;53.14;99248.25;5114985;28;19928;-74
2021/07/30 09:30:29;;;;;;;;;;;;;;;21.95;53.00;99249.19;5115215;28;19924;-73
2021/07/30 09:32:56;;;;;;;;;;;;;;;21.33;54.67;99249.94;5114780;28;19934;-74
2021/07/30 09:35:22;;;;;;;;;;;;;;;20.64;56.83;99253.91;5114977;28;19924;-74
2021/07/30 09:38:10;;;;;;;;;;;;;;;20.97;56.07;99256.09;5115145;28;19923;-75
2021/07/30 09:40:37;;;;;;;;;;;;;;;20.51;58.09;99248.44;5114912;28;19931;-77
2021/07/30 09:43:18;;;;;;;;;;;;;;;20.67;57.16;99247.44;5115266;28;19924;-77
2021/07/30 09:45:45;;;;;;;;;;;;;;;20.52;57.06;99251.91;5114663;28;20378;-75
2021/07/30 09:48:11;;;;;;;;;;;;;;;20.07;58.27;99240.59;5114947;28;19923;-75
2021/07/30 09:50:39;;;;;;;;;;;;;;;20.34;57.53;99245.19;5114800;28;19924;-76
2021/07/30 09:53:09;;;;;;;;;;;;;;;20.24;58.24;99249.94;5114664;28;20374;-79
2021/07/30 09:55:36;;;;;;;;;;;;;;;20.22;58.29;99246.66;5115620;28;19972;-76
2021/07/30 09:58:04;;;;;;;;;;;;;;;20.13;58.70;99256.50;5114591;28;19924;-76
2021/07/30 10:00:32;;;;;;;;;;;;;;;20.02;59.88;99249.03;5114634;27;20377;-74
2021/07/30 10:03:02;;;;;;;;;;;;;;;19.83;60.15;99245.09;5114161;28;19932;-74
2021/07/30 10:05:28;;;;;;;;;;;;;;;19.72;60.43;99251.66;5114524;28;20386;-74
2021/07/30 10:07:55;;;;;;;;;;;;;;;19.54;60.84;99241.38;5114454;28;19924;-74
2021/07/30 10:10:25;;;;;;;;;;;;;;;19.79;60.52;99244.66;5114736;28;19924;-74
2021/07/30 10:12:53;;;;;;;;;;;;;;;19.73;60.79;99241.91;5114044;28;20361;-74
2021/07/30 10:15:20;;;;;;;;;;;;;;;19.85;60.72;99244.94;5114413;28;19930;-73
2021/07/30 10:17:48;;;;;;;;;;;;;;;19.78;60.84;99247.47;5114326;28;19924;-74
2021/07/30 10:20:16;;;;;;;;;;;;;;;19.13;62.07;99248.81;5114465;28;19923;-73
2021/07/30 10:22:46;;;;;;;;;;;;;;;19.31;62.01;99246.69;5114250;28;19924;-74
2021/07/30 10:25:22;;;;;;;;;;;;;;;19.28;61.69;99246.25;5114121;28;19950;-73
2021/07/30 10:27:52;;;;;;;;;;;;;;;18.93;62.66;99243.19;5113730;28;19924;-74
2021/07/30 10:30:18;;;;;;;;;;;;;;;18.72;64.10;99249.06;5113901;28;19923;-73
2021/07/30 10:32:52;;;;;;;;;;;;;;;19.25;62.29;99244.78;5113981;28;19924;-73
2021/07/30 10:35:20;;;;;;;;;;;;;;;19.29;62.25;99246.09;5113878;28;19924;-74
2021/07/30 10:37:47;;;;;;;;;;;;;;;19.56;61.65;99241.22;5113676;28;20440;-74
2021/07/30 10:40:15;;;;;;;;;;;;;;;19.79;62.02;99238.56;5114206;28;19924;-74
2021/07/30 10:42:56;;;;;;;;;;;;;;;19.75;61.85;99238.09;5113375;28;20301;-74
2021/07/30 10:45:24;;;;;;;;;;;;;;;19.85;61.51;99237.00;5111949;28;19931;-74
2021/07/30 10:48:05;;;;;;;;;;;;;;;19.75;61.67;99230.16;5113796;28;19983;-74
2021/07/30 10:50:42;;;;;;;;;;;;;;;19.82;61.02;99222.34;5113472;28;19924;-74
2021/07/30 10:53:23;;;;;;;;;;;;;;;19.82;60.92;99224.19;5113531;28;19931;-74
2021/07/30 10:55:50;;;;;;;;;;;;;;;19.94;59.18;99215.63;5113476;28;19923;-72
2021/07/30 10:58:16;;;;;;;;;;;;;;;19.62;60.55;99214.13;5113733;28;20370;-74
2021/07/30 11:00:54;;;;;;;;;;;;;;;19.96;59.81;99203.06;5113522;28;19924;-74
2021/07/30 11:03:21;;;;;;;;;;;;;;;20.15;59.74;99211.44;5113246;28;20022;-74
2021/07/30 11:06:08;;;;;;;;;;;;;;;19.84;60.96;99217.72;5113092;28;19923;-74
2021/07/30 11:08:56;;;;;;;;;;;;;;;19.73;60.30;99208.44;5112661;28;21596;-74
2021/07/30 11:11:38;;;;;;;;;;;;;;;20.11;58.63;99212.78;5113483;28;19924;-74
2021/07/30 11:14:06;;;;;;;;;;;;;;;20.42;57.45;99212.56;5113375;28;19923;-74
2021/07/30 11:16:34;;;;;;;;;;;;;;;20.71;56.96;99198.50;5113152;28;20546;-74
2021/07/30 11:19:01;;;;;;;;;;;;;;;20.67;57.30;99205.97;5112829;28;19931;-74
2021/07/30 11:21:29;;;;;;;;;;;;;;;21.12;56.42;99203.16;5113434;28;19924;-74
2021/07/30 11:23:55;;;;;;;;;;;;;;;20.99;56.07;99203.03;5112867;28;19971;-74
2021/07/30 11:26:22;;;;;;;;;;;;;;;21.23;55.53;99207.13;5113234;28;19924;-74
2021/07/30 11:28:50;;;;;;;;;;;;;;;20.81;56.14;99198.19;5113058;28;19951;-75
2021/07/30 11:31:16;;;;;;;;;;;;;;;20.98;56.81;99194.28;5112945;28;19924;-75
2021/07/30 11:33:45;;;;;;;;;;;;;;;20.52;57.62;99197.22;5112966;28;19923;-73
2021/07/30 11:36:12;;;;;;;;;;;;;;;20.17;58.78;99199.69;5113249;28;19934;-78
2021/07/30 11:38:48;;;;;;;;;;;;;;;19.79;59.79;99193.69;5112962;28;19924;-76
2021/07/30 11:41:14;;;;;;;;;;;;;;;19.95;60.13;99190.06;5112022;28;19923;-74
2021/07/30 11:43:56;;;;;;;;;;;;;;;19.94;60.39;99191.88;5112625;28;20396;-74
2021/07/30 11:46:23;;;;;;;;;;;;;;;19.54;63.11;99195.72;5113038;28;20018;-74
2021/07/30 11:48:51;;;;;;;;;;;;;;;19.55;62.37;99198.22;5112441;28;20395;-75
2021/07/30 11:51:19;;;;;;;;;;;;;;;19.37;62.22;99200.38;5112822;28;19930;-75
2021/07/30 11:53:45;;;;;;;;;;;;;;;19.05;63.90;99201.44;5112407;28;19923;-75
2021/07/30 11:56:12;;;;;;;;;;;;;;;18.96;64.02;99198.06;5112651;28;20382;-75
2021/07/30 11:58:54;;;;;;;;;;;;;;;19.00;64.43;99204.59;5112530;28;20385;-73
2021/07/30 12:01:20;;;;;;;;;;;;;;;18.75;65.46;99211.00;5112698;28;19931;-75
2021/07/30 12:04:02;;;;;;;;;;;;;;;18.41;68.85;99220.09;5112288;28;19943;-73
2021/07/30 12:06:30;;;;;;;;;;;;;;;17.63;71.36;99219.00;5113015;28;19946;-71
2021/07/30 12:08:57;;;;;;;;;;;;;;;17.28;73.01;99230.69;5112579;28;19927;-71
2021/07/30 12:11:24;;;;;;;;;;;;;;;16.85;74.48;99215.09;5112890;28;19947;-71
2021/07/30 12:13:51;;;;;;;;;;;;;;;16.60;75.87;99237.81;5112168;28;19923;-71
2021/07/30 12:16:17;;;;;;;;;;;;;;;16.65;77.10;99230.28;5112796;28;19947;-71
2021/07/30 12:18:44;;;;;;;;;;;;;;;16.42;78.36;99242.34;5112182;28;20293;-74
2021/07/30 12:21:11;;;;;;;;;;;;;;;16.38;78.12;99243.63;5112508;28;20289;-75
2021/07/30 12:23:39;;;;;;;;;;;;;;;16.10;79.69;99249.09;5112484;28;20374;-72
2021/07/30 12:26:05;;;;;;;;;;;;;;;16.03;81.35;99246.28;5112422;28;20332;-75
2021/07/30 12:28:39;;;;;;;;;;;;;;;16.15;81.22;99248.63;5112579;28;19930;-74
2021/07/30 12:31:11;;;;;;;;;;;;;;;16.15;81.55;99256.47;5111911;28;19928;-74
2021/07/30 12:33:38;;;;;;;;;;;;;;;15.88;81.73;99251.28;5112187;28;19931;-74
2021/07/30 12:36:06;;;;;;;;;;;;;;;15.69;81.85;99254.09;5111443;28;20370;-74
2021/07/30 12:38:33;;;;;;;;;;;;;;;15.33;83.29;99251.50;5110736;28;19981;-74
2021/07/30 12:41:17;;;;;;;;;;;;;;;15.33;84.28;99255.91;5111433;28;19928;-74
2021/07/30 12:43:45;;;;;;;;;;;;;;;15.44;84.81;99251.28;5111255;28;19978;-75
2021/07/30 12:46:12;;;;;;;;;;;;;;;15.40;85.47;99257.78;5111276;28;20005;-75
2021/07/30 12:48:47;;;;;;;;;;;;;;;15.52;85.45;99255.75;5111033;28;19927;-75
2021/07/30 12:51:23;;;;;;;;;;;;;;;15.53;84.67;99254.75;5112142;28;19924;-74
2021/07/30 12:53:58;;;;;;;;;;;;;;;15.35;85.37;99253.97;5115610;28;19947;-75